Gilgit Weather



Gilgit's Current Weather

Temprature 24.97o few clouds

few clouds

Rain: 0 %

Min Temprature24.97o
Max Temprature24.97o
Humidity27
Wind Speed0.05 m/h
Sun Rise05:03:22
Sun Set18:55:09
Current Time: 08-May-2021 14:37:06
Lat/Lon: 35.9221, 74.3087




Gilgit's Geo Location



Gilgit's Weather Forecast

Time Overall Temp Min Temp Max Temp Humidity Wind Speed Rain
08-May-2021 (Sat)
17:00:00 few clouds 24.790 24.790 25.390 27 0.09 m/h 0 %
20:00:00 scattered clouds 23.880 23.580 23.880 33 1.3 m/h 0 %
23:00:00 light rain 21.280 21.280 21.280 47 0.84 m/h 15 %
09-May-2021 (Sun)
02:00:00 broken clouds 19.770 19.770 19.770 51 0.62 m/h 0 %
05:00:00 light rain 18.380 18.380 18.380 54 0.3 m/h 13 %
08:00:00 broken clouds 20.900 20.900 20.900 41 0.35 m/h 0 %
11:00:00 scattered clouds 23.940 23.940 23.940 32 0.41 m/h 0 %
14:00:00 light rain 26.260 26.260 26.260 24 0.7 m/h 31 %
17:00:00 few clouds 26.940 26.940 26.940 19 0.46 m/h 0 %
20:00:00 clear sky 25.380 25.380 25.380 28 1.08 m/h 0 %
23:00:00 clear sky 22.870 22.870 22.870 39 0.74 m/h 0 %
10-May-2021 (Mon)
02:00:00 clear sky 21.050 21.050 21.050 42 0.27 m/h 0 %
05:00:00 clear sky 19.440 19.440 19.440 44 0.98 m/h 0 %
08:00:00 clear sky 22.360 22.360 22.360 33 0.24 m/h 0 %
11:00:00 light rain 25.280 25.280 25.280 28 0.64 m/h 18 %
14:00:00 light rain 27.110 27.110 27.110 23 1.08 m/h 21 %
17:00:00 light rain 26.410 26.410 26.410 30 4.08 m/h 15 %
20:00:00 scattered clouds 23.830 23.830 23.830 41 2.06 m/h 0 %
23:00:00 scattered clouds 22.390 22.390 22.390 48 1.95 m/h 0 %
11-May-2021 (Tue)
02:00:00 light rain 21.180 21.180 21.180 55 1.72 m/h 18 %
05:00:00 light rain 20.500 20.500 20.500 55 1.5 m/h 35 %
08:00:00 light rain 21.940 21.940 21.940 47 1.73 m/h 27 %
11:00:00 light rain 24.290 24.290 24.290 38 2.26 m/h 51 %
14:00:00 light rain 25.930 25.930 25.930 32 0.22 m/h 20 %
17:00:00 light rain 23.330 23.330 23.330 50 4.09 m/h 82 %
20:00:00 light rain 19.800 19.800 19.800 64 0.98 m/h 172 %
23:00:00 light rain 19.390 19.390 19.390 66 2 m/h 81 %
12-May-2021 (Wed)
02:00:00 overcast clouds 18.600 18.600 18.600 67 1.49 m/h 0 %
05:00:00 overcast clouds 18.470 18.470 18.470 65 1.21 m/h 0 %
08:00:00 light rain 18.410 18.410 18.410 62 2.07 m/h 13 %
11:00:00 light rain 18.430 18.430 18.430 64 3.63 m/h 96 %
14:00:00 light rain 19.660 19.660 19.660 61 2.97 m/h 29 %
17:00:00 light rain 20.150 20.150 20.150 59 2.07 m/h 33 %
20:00:00 overcast clouds 18.820 18.820 18.820 64 2.29 m/h 0 %
23:00:00 light rain 17.950 17.950 17.950 70 1.27 m/h 24 %
13-May-2021 (Thu)
02:00:00 light rain 15.640 15.640 15.640 79 2.9 m/h 68 %
05:00:00 light rain 15.080 15.080 15.080 75 2.16 m/h 83 %
08:00:00 overcast clouds 16.060 16.060 16.060 66 1.36 m/h 0 %
11:00:00 light rain 17.210 17.210 17.210 63 1.12 m/h 52 %
14:00:00 overcast clouds 19.390 19.390 19.390 53 1.54 m/h 0 %

Famous Cities (60)